FW4756 Weather Reports


Display with metric or nautical units.
time (UTC)temp
F
wind
direction
speed
MPH
gust
MPH
rain 1hr
in
rain 24hr
in
rain mn
in
humidity
%
barometer
mb
20200401121520 39 0.0 0.0 0.00 0.68 0.01 99 1014.3
20200401120528 39 0.0 0.0 0.00 0.68 0.01 99 1014.3
20200401115537 39 0.0 0.0 0.00 0.68 0.01 99 1014.2
20200401114525 39 0.0 0.0 0.00 0.68 0.01 99 1014.3
20200401113533 39 0.0 0.0 0.00 0.68 0.01 99 1014.2
20200401112523 39 0.0 0.0 0.00 0.68 0.01 99 1014.2
20200401111531 39 0.0 0.0 0.00 0.68 0.01 99 1014.3
20200401110521 39 0.0 0.0 0.00 0.68 0.01 99 1014.3
20200401105530 39 0.0 0.0 0.00 0.68 0.01 99 1014.2
20200401104538 39 0.0 0.0 0.01 0.68 0.01 99 1014.2
20200401103526 39 0.0 0.0 0.01 0.68 0.01 99 1014.2
20200401102534 39 0.0 0.0 0.01 0.68 0.01 99 1014.2
20200401101524 39 0.0 0.0 0.01 0.68 0.01 99 1014.2
20200401100531 39 0.0 0.0 0.01 0.68 0.01 99 1014.2
20200401095521 39 0.0 0.0 0.01 0.68 0.01 99 1014.2
20200401094529 38 0.0 0.0 0.00 0.67 0.00 99 1014.3
20200401093538 38 0.0 0.0 0.00 0.67 0.00 99 1014.3
20200401092526 38 0.0 0.0 0.00 0.67 0.00 99 1014.3
20200401090524 38 0.0 0.0 0.00 0.67 0.00 99 1014.3
20200401085532 38 0.0 0.0 0.00 0.67 0.00 99 1014.3
20200401084521 38 0.0 0.0 0.00 0.67 0.00 99 1014.3
20200401083529 38 0.0 0.0 0.00 0.67 0.00 99 1014.4
20200401082544 38 0.0 0.0 0.00 0.67 0.00 99 1014.3
20200401081526 38 0.0 0.0 0.00 0.67 0.00 99 1014.3
20200401080535 38 0.0 0.0 0.00 0.67 0.00 99 1014.3
20200401075525 38 0.0 0.0 0.00 0.67 0.00 99 1014.3
20200401074532 38 0.0 0.0 0.00 0.67 0.00 99 1014.3
20200401073522 38 0.0 0.0 0.00 0.67 0.00 99 1014.4
20200401072530 38 0.0 0.0 0.00 0.67 0.00 99 1014.3
20200401071519 38 0.0 0.0 0.00 0.67 0.00 99 1014.4
20200401070527 38 0.0 0.0 0.00 0.67 0.00 99 1014.4
20200401065535 38 0.0 0.0 0.00 0.67 0.67 99 1014.4
20200401064525 38 0.0 0.0 0.00 0.67 0.67 99 1014.4
20200401063532 38 0.0 0.0 0.00 0.67 0.67 99 1014.4
20200401062522 38 0.0 0.0 0.00 0.67 0.67 99 1014.4
20200401061531 38 0.0 0.0 0.00 0.67 0.67 99 1014.5
20200401060520 37 0.0 0.0 0.00 0.67 0.67 99 1014.5
20200401055527 37 0.0 0.0 0.00 0.67 0.67 99 1014.6
20200401054536 37 0.0 0.0 0.00 0.67 0.67 99 1014.6
20200401053526 37 0.0 0.0 0.00 0.68 0.67 99 1014.6
20200401052533 37 0.0 0.0 0.00 0.68 0.67 99 1014.7
20200401051523 37 0.0 0.0 0.00 0.69 0.67 99 1014.7
20200401050531 37 0.0 0.0 0.00 0.71 0.67 99 1014.6
20200401045520 37 0.0 0.0 0.00 0.72 0.67 99 1014.6
20200401044528 37 0.0 0.0 0.00 0.73 0.67 99 1014.6
20200401043536 37 0.0 0.0 0.00 0.74 0.67 99 1014.6
20200401042526 36 0.0 0.0 0.00 0.74 0.67 99 1014.6
20200401041533 37 0.0 0.0 0.00 0.74 0.67 99 1014.6
20200401040523 37 0.0 0.0 0.00 0.74 0.67 99 1014.4
20200401035531 37 0.0 0.0 0.01 0.74 0.67 99 1014.4
20200401034520 36 0.0 0.0 0.04 0.74 0.67 99 1014.2
20200401033528 36 0.0 0.0 0.09 0.74 0.67 99 1014.1
20200401032537 36 0.0 0.0 0.16 0.74 0.67 99 1014.0
20200401031527 36 0.0 0.0 0.22 0.74 0.67 99 1014.0
20200401030534 36 0.0 0.0 0.28 0.74 0.67 99 1014.2
20200401025524 36 0.0 0.0 0.32 0.73 0.66 99 1014.2
20200401024531 36 0.0 0.0 0.34 0.70 0.63 99 1014.3
20200401023521 36 0.0 0.0 0.35 0.65 0.58 99 1014.3
20200401022529 37 0.0 0.0 0.31 0.58 0.51 99 1014.5
20200401021537 38 0.0 0.0 0.30 0.52 0.45 99 1014.5
20200401020527 38 0.0 0.0 0.27 0.46 0.39 99 1014.5
20200401015534 39 0.0 0.0 0.22 0.41 0.34 99 1014.3
20200401014524 39 0.0 3.0 0.17 0.36 0.29 99 1014.1
20200401013532 39 0.0 0.0 0.11 0.30 0.23 99 1014.0
20200401012521 40 0.0 0.0 0.08 0.27 0.20 99 1014.0
20200401011530 40 0.0 0.0 0.05 0.22 0.15 99 1013.6
20200401010538 41 0.0 2.0 0.02 0.19 0.12 99 1013.5
20200401005527 41 0.0 2.0 0.07 0.19 0.12 99 1013.4
20200401004535 41 0.0 0.0 0.11 0.19 0.12 99 1013.5
20200401003524 42 0.0 0.0 0.12 0.19 0.12 99 1013.6
20200401002533 41 0.0 0.0 0.12 0.19 0.12 99 1013.6
20200401001522 42 0.0 0.0 0.10 0.17 0.10 99 1013.6
20200401000530 41 0.0 0.0 0.10 0.17 0.10 98 1013.6
20200331235519 43 0.0 0.0 0.05 0.12 0.05 92 1013.9
20200331234527 43 0.0 0.0 0.01 0.08 0.01 87 1013.6
20200331233535 45 137 1.0 7.0 0.00 0.07 0.00 81 1013.4
20200331232525 45 193 1.0 7.0 0.00 0.07 0.00 78 1013.3
20200331231534 46 117 1.0 6.0 0.00 0.07 0.00 79 1013.2
20200331230522 47 152 3.0 6.0 0.00 0.07 0.00 80 1013.1
20200331225531 47 146 3.0 7.0 0.00 0.07 0.00 76 1012.9
20200331224520 49 0.0 0.0 0.00 0.07 0.00 71 1012.9
20200331223528 48 0.0 0.0 0.00 0.07 0.00 71 1013.0
20200331222536 49 158 0.0 4.0 0.00 0.07 0.00 69 1012.9
20200331221525 49 217 0.0 4.0 0.00 0.07 0.00 66 1013.0
20200331220534 49 0.0 0.0 0.00 0.07 0.00 65 1012.9
20200331215523 49 0.0 0.0 0.00 0.07 0.00 63 1012.9
20200331214531 50 278 1.0 6.0 0.00 0.07 0.00 62 1012.9
20200331213520 51 270 1.0 4.0 0.00 0.07 0.00 62 1013.0
20200331212529 49 270 1.0 4.0 0.00 0.08 0.00 65 1013.0
20200331211537 50 0.0 0.0 0.00 0.08 0.00 63 1013.1
20200331210526 50 0.0 0.0 0.00 0.08 0.00 66 1013.1
20200331205534 50 164 0.0 4.0 0.00 0.08 0.00 65 1013.1
20200331204523 51 205 1.0 5.0 0.00 0.08 0.00 66 1013.2
20200331203532 51 131 1.0 6.0 0.00 0.08 0.00 67 1013.2
20200331202521 50 68 2.0 9.0 0.00 0.08 0.00 68 1013.3
20200331201529 49 133 5.0 8.0 0.00 0.08 0.00 68 1013.4
20200331200537 49 0.0 0.0 0.00 0.08 0.00 71 1013.4
20200331195527 51 135 1.0 6.0 0.00 0.08 0.00 68 1013.4
20200331194535 50 0.0 1.0 0.00 0.08 0.00 68 1013.5
20200331193523 49 175 0.0 4.0 0.00 0.08 0.00 71 1013.5
20200331192532 48 0.0 3.0 0.00 0.08 0.00 75 1013.5
20200331191521 48 225 0.0 4.0 0.00 0.08 0.00 74 1013.5
20200331190529 47 116 3.0 7.0 0.00 0.08 0.00 74 1013.5
20200331185537 47 152 2.0 6.0 0.00 0.08 0.00 76 1013.5
20200331184527 46 118 3.0 8.0 0.00 0.08 0.00 76 1013.5
20200331183535 44 157 4.0 7.0 0.00 0.08 0.00 81 1013.5
20200331182524 45 116 2.0 7.0 0.00 0.08 0.00 82 1013.5
20200331181532 45 113 1.0 4.0 0.00 0.08 0.00 80 1013.5
20200331180522 44 140 2.0 6.0 0.00 0.08 0.00 83 1013.4
20200331175530 44 0.0 0.0 0.00 0.08 0.00 86 1013.3
20200331174520 44 0.0 0.0 0.00 0.08 0.00 87 1013.2
20200331173527 44 113 1.0 4.0 0.00 0.08 0.00 85 1013.2
20200331172535 44 113 1.0 6.0 0.00 0.08 0.00 85 1013.1
20200331171524 44 0.0 0.0 0.00 0.08 0.00 87 1013.0
20200331170532 44 0.0 3.0 0.00 0.08 0.00 87 1012.9
20200331165522 43 45 0.0 1.0 0.00 0.08 0.00 88 1012.8
20200331164530 42 225 1.0 4.0 0.00 0.08 0.00 90 1012.7
20200331163520 42 0.0 0.0 0.00 0.08 0.00 91 1012.6
20200331162528 42 0.0 0.0 0.00 0.08 0.00 92 1012.5
20200331161536 41 248 0.0 4.0 0.00 0.08 0.00 92 1012.5
20200331160525 41 0.0 0.0 0.00 0.08 0.00 93 1012.4
20200331155533 40 0.0 0.0 0.00 0.08 0.00 96 1012.3
20200331154523 39 0.0 0.0 0.00 0.08 0.00 97 1012.2
20200331153531 39 0.0 0.0 0.00 0.08 0.00 98 1012.1
20200331152520 39 0.0 0.0 0.00 0.08 0.00 99 1012.2
20200331151528 39 0.0 0.0 0.00 0.08 0.00 99 1012.0
20200331150537 39 0.0 0.0 0.00 0.08 0.00 99 1011.9
20200331145525 39 0.0 0.0 0.00 0.08 0.00 99 1011.8
20200331144534 38 0.0 0.0 0.00 0.08 0.00 99 1011.7
20200331143523 38 0.0 0.0 0.00 0.08 0.00 99 1011.6
20200331142532 38 0.0 0.0 0.00 0.08 0.00 99 1011.6
20200331141520 38 0.0 0.0 0.00 0.08 0.00 99 1011.5
20200331140528 38 0.0 0.0 0.00 0.08 0.00 99 1011.5
20200331135537 38 0.0 0.0 0.00 0.08 0.00 99 1011.4
20200331134526 38 0.0 0.0 0.00 0.08 0.00 99 1011.4
20200331133534 38 0.0 0.0 0.00 0.08 0.00 99 1011.2
20200331132524 38 0.0 0.0 0.00 0.09 0.00 99 1011.1
20200331131532 39 0.0 0.0 0.00 0.09 0.00 99 1011.0
20200331130521 39 0.0 0.0 0.00 0.09 0.00 99 1010.9
20200331125529 39 0.0 0.0 0.00 0.09 0.00 99 1010.8
20200331124538 39 0.0 0.0 0.00 0.09 0.00 99 1010.7
20200331123526 39 0.0 0.0 0.00 0.11 0.00 99 1010.7
20200331122538 39 0.0 4.0 0.00 0.13 0.00 99 1010.8